ADDS METAR Data INFO
IDs: Format: Raw Decoded Include TAF

Data at: 1248 UTC 19 Oct 2017

KFFL 191235Z AUTO 05006KT 10SM CLR 08/06 A3011 RMK AO2 PWINO
KFFL 191215Z AUTO 03007KT 10SM CLR 08/06 A3011 RMK AO2 PWINO
KFFL 191155Z AUTO 04005KT 10SM CLR 07/06 A3010 RMK AO2 PWINO
KFFL 191135Z AUTO 00000KT 10SM CLR 08/07 A3010 RMK AO2 PWINO
KFFL 191115Z AUTO 01004KT 10SM CLR 08/06 A3009 RMK AO2 PWINO
KFFL 191055Z AUTO 33004KT 10SM CLR 08/07 A3009 RMK AO2 PWINO
KFFL 191035Z AUTO 33005KT 10SM CLR 08/07 A3008 RMK AO2 PWINO
KFFL 191015Z AUTO 29003KT 10SM CLR 09/07 A3008 RMK AO2 PWINO
KFFL 190955Z AUTO 28004KT 10SM CLR 10/08 A3008 RMK AO2 PWINO
KFFL 190935Z AUTO 29005KT 10SM CLR 09/07 A3007 RMK AO2 PWINO
KFFL 190915Z AUTO 27004KT 10SM CLR 09/07 A3006 RMK AO2 PWINO
KFFL 190855Z AUTO 25004KT 10SM CLR 09/07 A3006 RMK AO2 PWINO
KFFL 190835Z AUTO 24005KT 10SM CLR 10/08 A3006 RMK AO2 PWINO
KFFL 190815Z AUTO 23005KT 10SM CLR 10/08 A3006 RMK AO2 PWINO
KFFL 190755Z AUTO 22006KT 10SM CLR 11/08 A3005 RMK AO2 PWINO
KFFL 190735Z AUTO 22006KT 10SM CLR 11/08 A3005 RMK AO2 PWINO
KFFL 190715Z AUTO 22005KT 10SM CLR 11/08 A3005 RMK AO2 PWINO
KFFL 190655Z AUTO 21005KT 10SM CLR 11/08 A3005 RMK AO2 PWINO
KFFL 190635Z AUTO 20005KT 10SM CLR 12/08 A3004 RMK AO2 PWINO
KFFL 190615Z AUTO 19007KT 10SM CLR 12/08 A3004 RMK AO2 PWINO
KFFL 190555Z AUTO 20006KT 10SM CLR 13/08 A3004 RMK AO2 PWINO
KFFL 190535Z AUTO 21004KT 10SM CLR 11/08 A3004 RMK AO2 PWINO
KFFL 190515Z AUTO 20005KT 10SM CLR 13/08 A3004 RMK AO2 PWINO
KFFL 190455Z AUTO 19007KT 10SM CLR 13/08 A3003 RMK AO2 PWINO
KFFL 190435Z AUTO 19007KT 10SM CLR 13/08 A3004 RMK AO2 PWINO
KFFL 190415Z AUTO 19006KT 10SM CLR 13/08 A3004 RMK AO2 PWINO
KFFL 190355Z AUTO 19006KT 10SM CLR 14/08 A3004 RMK AO2 PWINO
KFFL 190335Z AUTO 19004KT 10SM CLR 15/08 A3005 RMK AO2 PWINO
KFFL 190315Z AUTO 19004KT 10SM CLR 15/08 A3005 RMK AO2 PWINO
KFFL 190255Z AUTO 19005KT 10SM CLR 15/08 A3005 RMK AO2 PWINO
KFFL 190235Z AUTO 20005KT 10SM CLR 15/08 A3004 RMK AO2 PWINO
KFFL 190215Z AUTO 21005KT 10SM CLR 15/08 A3004 RMK AO2 PWINO
KFFL 190155Z AUTO 21004KT 10SM CLR 15/08 A3003 RMK AO2 PWINO
KFFL 190135Z AUTO 20006KT 10SM CLR 16/08 A3002 RMK AO2 PWINO
KFFL 190115Z AUTO 20004KT 10SM CLR 15/08 A3002 RMK AO2 PWINO
KFFL 190055Z AUTO 19006KT 10SM CLR 16/08 A3001 RMK AO2 PWINO
KFFL 190035Z AUTO 19006KT 10SM CLR 17/08 A3001 RMK AO2 PWINO
KFFL 190015Z AUTO 17007KT 10SM CLR 17/08 A3000 RMK AO2 PWINO
KFFL 182355Z AUTO 19006KT 10SM CLR 18/08 A3000 RMK AO2 PWINO
KFFL 182335Z AUTO 20006KT 10SM CLR 19/08 A3000 RMK AO2 PWINO
KFFL 182315Z AUTO 20007KT 10SM CLR 20/08 A2999 RMK AO2 PWINO
KFFL 182255Z AUTO 20008KT 10SM CLR 21/07 A2999 RMK AO2 PWINO
KFFL 182235Z AUTO 20009G16KT 10SM CLR 22/07 A2997 RMK AO2 PWINO
KFFL 182215Z AUTO 18009KT 10SM CLR 22/08 A2997 RMK AO2 PWINO
KFFL 182155Z AUTO 18012KT 10SM CLR 22/07 A2996 RMK AO2 PWINO
KFFL 182135Z AUTO 19015KT 10SM CLR 23/07 A2996 RMK AO2 PWINO
KFFL 182115Z AUTO 18014G20KT 10SM CLR 23/07 A2997 RMK AO2 PWINO
KFFL 182055Z AUTO 18015G21KT 10SM CLR 23/07 A2997 RMK AO2 PWINO
KFFL 182035Z AUTO 19012G21KT 10SM CLR 23/07 A2997 RMK AO2 PWINO
KFFL 182015Z AUTO 20013G20KT 10SM CLR 23/07 A2998 RMK AO2 PWINO
KFFL 181955Z AUTO 18013G20KT 10SM CLR 23/07 A2998 RMK AO2 PWINO
KFFL 181935Z AUTO 18015G21KT 10SM CLR 22/07 A2998 RMK AO2 PWINO
KFFL 181915Z AUTO 19017G24KT 10SM CLR 22/07 A2999 RMK AO2 PWINO
KFFL 181855Z AUTO 18013G21KT 10SM CLR 22/07 A2999 RMK AO2 PWINO
KFFL 181835Z AUTO 19016KT 10SM CLR 22/07 A3000 RMK AO2 PWINO
KFFL 181815Z AUTO 19014KT 10SM CLR 21/07 A3001 RMK AO2 PWINO
KFFL 181755Z AUTO 20012G19KT 10SM CLR 21/07 A3002 RMK AO2 PWINO
KFFL 181735Z AUTO 19014KT 10SM CLR 20/07 A3004 RMK AO2 PWINO
KFFL 181715Z AUTO 19012KT 10SM CLR 20/07 A3004 RMK AO2 PWINO
KFFL 181655Z AUTO 19012G19KT 10SM CLR 19/07 A3004 RMK AO2 PWINO
KFFL 181635Z AUTO 19012KT 10SM CLR 19/07 A3004 RMK AO2 PWINO
KFFL 181615Z AUTO 20014G19KT 10SM CLR 18/07 A3005 RMK AO2 PWINO
KFFL 181555Z AUTO 20015KT 10SM CLR 17/07 A3005 RMK AO2 PWINO
KFFL 181535Z AUTO 19012G19KT 10SM CLR 16/07 A3006 RMK AO2 PWINO
KFFL 181515Z AUTO 19011G17KT 10SM CLR 15/07 A3006 RMK AO2 PWINO
KFFL 181455Z AUTO 20010G16KT 10SM CLR 14/07 A3007 RMK AO2 PWINO
KFFL 181435Z AUTO 20014KT 10SM CLR 14/06 A3007 RMK AO2 PWINO
KFFL 181415Z AUTO 19011G16KT 10SM CLR 13/06 A3007 RMK AO2 PWINO
KFFL 181355Z AUTO 19010KT 10SM CLR 12/06 A3007 RMK AO2 PWINO
KFFL 181335Z AUTO 19009KT 10SM CLR 11/06 A3007 RMK AO2 PWINO
KFFL 181315Z AUTO 18009KT 10SM CLR 10/06 A3007 RMK AO2 PWINO
KFFL 181255Z AUTO 18008KT 10SM CLR 10/06 A3007 RMK AO2 PWINO
KFFL 181235Z AUTO 18007KT 10SM CLR 10/06 A3007 RMK AO2 PWINO
KFFL 181215Z AUTO 17007KT 10SM CLR 09/06 A3006 RMK AO2 PWINO
KFFL 181155Z AUTO 18005KT 10SM CLR 10/06 A3006 RMK AO2 PWINO
KFFL 181135Z AUTO 17006KT 10SM CLR 10/06 A3006 RMK AO2 PWINO
KFFL 181115Z AUTO 18006KT 10SM CLR 10/06 A3006 RMK AO2 PWINO
KFFL 181055Z AUTO 17006KT 10SM CLR 10/06 A3006 RMK AO2 PWINO
KFFL 181035Z AUTO 18006KT 10SM CLR 10/06 A3006 RMK AO2 PWINO
KFFL 181015Z AUTO 18006KT 10SM CLR 10/06 A3006 RMK AO2 PWINO
KFFL 180955Z AUTO 18008KT 10SM CLR 10/06 A3006 RMK AO2 PWINO
KFFL 180935Z AUTO 18008KT 10SM CLR 11/06 A3006 RMK AO2 PWINO
KFFL 180915Z AUTO 18008KT 10SM CLR 11/06 A3006 RMK AO2 PWINO
KFFL 180855Z AUTO 18007KT 10SM CLR 11/06 A3006 RMK AO2 PWINO
KFFL 180835Z AUTO 17006KT 10SM CLR 10/06 A3007 RMK AO2 PWINO
KFFL 180815Z AUTO 18007KT 10SM CLR 11/06 A3007 RMK AO2 PWINO
KFFL 180755Z AUTO 18007KT 10SM CLR 10/06 A3007 RMK AO2 PWINO
KFFL 180735Z AUTO 18005KT 10SM CLR 11/06 A3008 RMK AO2 PWINO
KFFL 180715Z AUTO 17006KT 10SM CLR 11/06 A3008 RMK AO2 PWINO
KFFL 180655Z AUTO 18006KT 10SM CLR 11/06 A3008 RMK AO2 PWINO
KFFL 180635Z AUTO 18007KT 10SM CLR 12/06 A3008 RMK AO2 PWINO
KFFL 180615Z AUTO 17007KT 10SM CLR 11/06 A3008 RMK AO2 PWINO
KFFL 180555Z AUTO 18009KT 10SM CLR 12/06 A3008 RMK AO2 PWINO
KFFL 180535Z AUTO 18007KT 10SM CLR 12/06 A3008 RMK AO2 PWINO
KFFL 180515Z AUTO 18007KT 10SM CLR 12/06 A3009 RMK AO2 PWINO
KFFL 180455Z AUTO 19008KT 10SM CLR 13/06 A3009 RMK AO2 PWINO
KFFL 180435Z AUTO 19008KT 10SM CLR 12/06 A3009 RMK AO2 PWINO
KFFL 180415Z AUTO 19009KT 10SM CLR 13/06 A3010 RMK AO2 PWINO
KFFL 180355Z AUTO 18008KT 10SM CLR 13/06 A3010 RMK AO2 PWINO
KFFL 180335Z AUTO 17008KT 10SM CLR 13/06 A3010 RMK AO2 PWINO
KFFL 180315Z AUTO 18008KT 10SM CLR 13/06 A3010 RMK AO2 PWINO
KFFL 180255Z AUTO 17007KT 10SM CLR 13/06 A3010 RMK AO2 PWINO
KFFL 180235Z AUTO 17006KT 10SM CLR 13/06 A3010 RMK AO2 PWINO
KFFL 180215Z AUTO 17005KT 10SM CLR 13/06 A3010 RMK AO2 PWINO
KFFL 180155Z AUTO 17005KT 10SM CLR 14/06 A3010 RMK AO2 PWINO
KFFL 180135Z AUTO 16005KT 10SM CLR 14/06 A3010 RMK AO2 PWINO
KFFL 180115Z AUTO 16007KT 10SM CLR 13/06 A3010 RMK AO2 PWINO
KFFL 180055Z AUTO 16006KT 10SM CLR 14/06 A3009 RMK AO2 PWINO